sensor_id;sensor_type;location;lat;lon;timestamp;P1;durP1;ratioP1;P2;durP2;ratioP2
61911;SDS011;49973;52.084;5.412;2023-06-04T00:00:09;2.87;;;1.30;;
61911;SDS011;49973;52.084;5.412;2023-06-04T00:02:38;1.37;;;0.73;;
61911;SDS011;49973;52.084;5.412;2023-06-04T00:05:07;1.17;;;1.00;;
61911;SDS011;49973;52.084;5.412;2023-06-04T00:07:36;1.00;;;0.83;;
61911;SDS011;49973;52.084;5.412;2023-06-04T00:10:05;1.53;;;1.20;;
61911;SDS011;49973;52.084;5.412;2023-06-04T00:12:36;1.87;;;1.30;;
61911;SDS011;49973;52.084;5.412;2023-06-04T00:15:05;2.13;;;1.47;;
61911;SDS011;49973;52.084;5.412;2023-06-04T00:17:34;4.13;;;1.07;;
61911;SDS011;49973;52.084;5.412;2023-06-04T00:20:03;5.90;;;1.40;;
61911;SDS011;49973;52.084;5.412;2023-06-04T00:22:33;3.80;;;1.10;;
61911;SDS011;49973;52.084;5.412;2023-06-04T00:25:01;2.27;;;1.03;;
61911;SDS011;49973;52.084;5.412;2023-06-04T00:27:31;5.13;;;1.30;;
61911;SDS011;49973;52.084;5.412;2023-06-04T00:30:01;2.03;;;1.37;;
61911;SDS011;49973;52.084;5.412;2023-06-04T00:32:29;1.33;;;1.03;;
61911;SDS011;49973;52.084;5.412;2023-06-04T00:34:58;1.60;;;1.20;;
61911;SDS011;49973;52.084;5.412;2023-06-04T00:37:28;2.20;;;1.40;;
61911;SDS011;49973;52.084;5.412;2023-06-04T00:39:57;1.40;;;0.90;;
61911;SDS011;49973;52.084;5.412;2023-06-04T00:42:26;1.20;;;0.90;;
61911;SDS011;49973;52.084;5.412;2023-06-04T00:44:55;1.67;;;1.00;;
61911;SDS011;49973;52.084;5.412;2023-06-04T00:47:25;1.77;;;1.20;;
61911;SDS011;49973;52.084;5.412;2023-06-04T00:49:56;1.17;;;1.00;;
61911;SDS011;49973;52.084;5.412;2023-06-04T00:52:26;2.40;;;1.20;;
61911;SDS011;49973;52.084;5.412;2023-06-04T00:54:55;1.93;;;1.33;;
61911;SDS011;49973;52.084;5.412;2023-06-04T00:57:24;2.23;;;1.23;;
61911;SDS011;49973;52.084;5.412;2023-06-04T00:59:52;1.67;;;1.00;;
61911;SDS011;49973;52.084;5.412;2023-06-04T01:02:21;2.37;;;1.07;;
61911;SDS011;49973;52.084;5.412;2023-06-04T01:04:56;3.90;;;1.27;;
61911;SDS011;49973;52.084;5.412;2023-06-04T01:07:31;2.70;;;1.30;;
61911;SDS011;49973;52.084;5.412;2023-06-04T01:09:59;2.47;;;1.30;;
61911;SDS011;49973;52.084;5.412;2023-06-04T01:12:28;2.13;;;1.40;;
61911;SDS011;49973;52.084;5.412;2023-06-04T01:14:57;2.77;;;1.33;;
61911;SDS011;49973;52.084;5.412;2023-06-04T01:17:29;4.17;;;1.93;;
61911;SDS011;49973;52.084;5.412;2023-06-04T01:20:12;1.87;;;1.40;;
61911;SDS011;49973;52.084;5.412;2023-06-04T01:22:49;3.87;;;1.70;;
61911;SDS011;49973;52.084;5.412;2023-06-04T01:25:31;3.63;;;1.77;;
61911;SDS011;49973;52.084;5.412;2023-06-04T01:28:01;2.57;;;1.83;;
61911;SDS011;49973;52.084;5.412;2023-06-04T01:30:32;4.67;;;1.73;;
61911;SDS011;49973;52.084;5.412;2023-06-04T01:33:02;3.00;;;1.80;;
61911;SDS011;49973;52.084;5.412;2023-06-04T01:35:32;1.30;;;1.20;;
61911;SDS011;49973;52.084;5.412;2023-06-04T01:38:01;1.90;;;1.40;;
61911;SDS011;49973;52.084;5.412;2023-06-04T01:40:30;3.00;;;1.43;;
61911;SDS011;49973;52.084;5.412;2023-06-04T01:42:59;1.50;;;1.10;;
61911;SDS011;49973;52.084;5.412;2023-06-04T01:45:28;2.87;;;1.70;;
61911;SDS011;49973;52.084;5.412;2023-06-04T01:48:00;1.83;;;1.60;;
61911;SDS011;49973;52.084;5.412;2023-06-04T01:50:29;2.10;;;1.20;;
61911;SDS011;49973;52.084;5.412;2023-06-04T01:52:59;1.57;;;1.17;;
61911;SDS011;49973;52.084;5.412;2023-06-04T01:55:28;6.53;;;1.30;;
61911;SDS011;49973;52.084;5.412;2023-06-04T01:58:00;2.20;;;1.20;;
61911;SDS011;49973;52.084;5.412;2023-06-04T02:00:29;2.23;;;1.20;;
61911;SDS011;49973;52.084;5.412;2023-06-04T02:02:58;1.30;;;1.17;;
61911;SDS011;49973;52.084;5.412;2023-06-04T02:05:27;2.13;;;1.17;;
61911;SDS011;49973;52.084;5.412;2023-06-04T02:07:55;1.63;;;1.07;;
61911;SDS011;49973;52.084;5.412;2023-06-04T02:10:26;1.73;;;1.37;;
61911;SDS011;49973;52.084;5.412;2023-06-04T02:12:55;1.50;;;0.93;;
61911;SDS011;49973;52.084;5.412;2023-06-04T02:15:26;1.63;;;1.30;;
61911;SDS011;49973;52.084;5.412;2023-06-04T02:17:56;1.50;;;1.27;;
61911;SDS011;49973;52.084;5.412;2023-06-04T02:20:26;1.57;;;1.20;;
61911;SDS011;49973;52.084;5.412;2023-06-04T02:22:56;2.73;;;1.10;;
61911;SDS011;49973;52.084;5.412;2023-06-04T02:25:27;4.27;;;1.60;;
61911;SDS011;49973;52.084;5.412;2023-06-04T02:27:55;3.23;;;1.67;;
61911;SDS011;49973;52.084;5.412;2023-06-04T02:30:24;5.60;;;1.70;;
61911;SDS011;49973;52.084;5.412;2023-06-04T02:32:53;2.63;;;1.37;;
61911;SDS011;49973;52.084;5.412;2023-06-04T02:35:22;2.77;;;1.47;;
61911;SDS011;49973;52.084;5.412;2023-06-04T02:37:51;2.87;;;1.73;;
61911;SDS011;49973;52.084;5.412;2023-06-04T02:40:20;2.87;;;1.10;;
61911;SDS011;49973;52.084;5.412;2023-06-04T02:42:50;4.00;;;1.60;;
61911;SDS011;49973;52.084;5.412;2023-06-04T02:45:20;5.50;;;1.00;;
61911;SDS011;49973;52.084;5.412;2023-06-04T02:47:49;2.40;;;1.67;;
61911;SDS011;49973;52.084;5.412;2023-06-04T02:50:18;1.83;;;1.43;;
61911;SDS011;49973;52.084;5.412;2023-06-04T02:52:47;2.73;;;1.33;;
61911;SDS011;49973;52.084;5.412;2023-06-04T02:55:15;1.53;;;1.33;;
61911;SDS011;49973;52.084;5.412;2023-06-04T02:57:44;1.90;;;1.37;;
61911;SDS011;49973;52.084;5.412;2023-06-04T03:00:15;3.00;;;1.27;;
61911;SDS011;49973;52.084;5.412;2023-06-04T03:02:45;2.90;;;1.73;;
61911;SDS011;49973;52.084;5.412;2023-06-04T03:05:15;2.50;;;1.37;;
61911;SDS011;49973;52.084;5.412;2023-06-04T03:07:46;2.63;;;1.53;;
61911;SDS011;49973;52.084;5.412;2023-06-04T03:10:15;2.70;;;1.70;;
61911;SDS011;49973;52.084;5.412;2023-06-04T03:12:44;1.57;;;1.20;;
61911;SDS011;49973;52.084;5.412;2023-06-04T03:15:14;3.13;;;1.87;;
61911;SDS011;49973;52.084;5.412;2023-06-04T03:17:43;5.20;;;1.37;;
61911;SDS011;49973;52.084;5.412;2023-06-04T03:20:12;6.70;;;1.60;;
61911;SDS011;49973;52.084;5.412;2023-06-04T03:22:41;6.03;;;1.57;;
61911;SDS011;49973;52.084;5.412;2023-06-04T03:25:09;2.90;;;1.67;;
61911;SDS011;49973;52.084;5.412;2023-06-04T03:27:38;3.37;;;2.07;;
61911;SDS011;49973;52.084;5.412;2023-06-04T03:30:07;2.73;;;1.60;;
61911;SDS011;49973;52.084;5.412;2023-06-04T03:33:10;1.90;;;1.37;;
61911;SDS011;49973;52.084;5.412;2023-06-04T03:35:39;1.63;;;1.30;;
61911;SDS011;49973;52.084;5.412;2023-06-04T03:38:08;4.83;;;1.77;;
61911;SDS011;49973;52.084;5.412;2023-06-04T03:40:38;3.50;;;1.60;;
61911;SDS011;49973;52.084;5.412;2023-06-04T03:43:07;3.97;;;1.87;;
61911;SDS011;49973;52.084;5.412;2023-06-04T03:45:36;2.17;;;1.70;;
61911;SDS011;49973;52.084;5.412;2023-06-04T03:48:06;8.13;;;1.90;;
61911;SDS011;49973;52.084;5.412;2023-06-04T03:50:38;5.43;;;2.07;;
61911;SDS011;49973;52.084;5.412;2023-06-04T03:53:07;2.03;;;1.47;;
61911;SDS011;49973;52.084;5.412;2023-06-04T03:55:36;8.23;;;2.07;;
61911;SDS011;49973;52.084;5.412;2023-06-04T03:58:07;2.77;;;1.60;;
61911;SDS011;49973;52.084;5.412;2023-06-04T04:00:42;3.30;;;2.00;;
61911;SDS011;49973;52.084;5.412;2023-06-04T04:03:12;3.03;;;1.40;;
61911;SDS011;49973;52.084;5.412;2023-06-04T04:05:44;6.97;;;1.80;;
61911;SDS011;49973;52.084;5.412;2023-06-04T04:08:13;5.13;;;1.70;;
61911;SDS011;49973;52.084;5.412;2023-06-04T04:10:44;5.83;;;1.70;;
61911;SDS011;49973;52.084;5.412;2023-06-04T04:13:12;4.33;;;2.03;;
61911;SDS011;49973;52.084;5.412;2023-06-04T04:15:41;4.63;;;1.60;;
61911;SDS011;49973;52.084;5.412;2023-06-04T04:18:11;3.67;;;1.47;;
61911;SDS011;49973;52.084;5.412;2023-06-04T04:20:40;3.23;;;1.83;;
61911;SDS011;49973;52.084;5.412;2023-06-04T04:23:11;7.03;;;1.57;;
61911;SDS011;49973;52.084;5.412;2023-06-04T04:25:43;2.87;;;1.90;;
61911;SDS011;49973;52.084;5.412;2023-06-04T04:28:12;2.10;;;1.60;;
61911;SDS011;49973;52.084;5.412;2023-06-04T04:30:41;5.43;;;2.07;;
61911;SDS011;49973;52.084;5.412;2023-06-04T04:33:12;3.90;;;1.90;;
61911;SDS011;49973;52.084;5.412;2023-06-04T04:35:45;2.13;;;1.70;;
61911;SDS011;49973;52.084;5.412;2023-06-04T04:38:19;2.27;;;1.77;;
61911;SDS011;49973;52.084;5.412;2023-06-04T04:40:59;2.87;;;2.00;;
61911;SDS011;49973;52.084;5.412;2023-06-04T04:43:29;5.67;;;2.27;;
61911;SDS011;49973;52.084;5.412;2023-06-04T04:46:06;6.50;;;1.83;;
61911;SDS011;49973;52.084;5.412;2023-06-04T04:48:35;3.57;;;1.67;;
61911;SDS011;49973;52.084;5.412;2023-06-04T04:51:05;5.83;;;2.13;;
61911;SDS011;49973;52.084;5.412;2023-06-04T04:53:36;1.93;;;1.60;;
61911;SDS011;49973;52.084;5.412;2023-06-04T04:56:05;3.23;;;2.30;;
61911;SDS011;49973;52.084;5.412;2023-06-04T04:58:38;3.77;;;2.10;;
61911;SDS011;49973;52.084;5.412;2023-06-04T05:01:06;3.47;;;2.20;;
61911;SDS011;49973;52.084;5.412;2023-06-04T05:03:37;5.43;;;1.77;;
61911;SDS011;49973;52.084;5.412;2023-06-04T05:06:07;3.30;;;1.90;;
61911;SDS011;49973;52.084;5.412;2023-06-04T05:08:37;3.20;;;1.90;;
61911;SDS011;49973;52.084;5.412;2023-06-04T05:11:06;3.67;;;1.83;;
61911;SDS011;49973;52.084;5.412;2023-06-04T05:13:37;2.73;;;1.80;;
61911;SDS011;49973;52.084;5.412;2023-06-04T05:16:06;4.80;;;2.30;;
61911;SDS011;49973;52.084;5.412;2023-06-04T05:18:39;7.33;;;2.10;;
61911;SDS011;49973;52.084;5.412;2023-06-04T05:21:15;5.73;;;2.00;;
61911;SDS011;49973;52.084;5.412;2023-06-04T05:23:52;6.37;;;1.90;;
61911;SDS011;49973;52.084;5.412;2023-06-04T05:26:24;3.40;;;2.03;;
61911;SDS011;49973;52.084;5.412;2023-06-04T05:28:59;6.00;;;1.93;;
61911;SDS011;49973;52.084;5.412;2023-06-04T05:31:32;8.43;;;2.27;;
61911;SDS011;49973;52.084;5.412;2023-06-04T05:34:03;3.40;;;1.87;;
61911;SDS011;49973;52.084;5.412;2023-06-04T05:36:35;3.20;;;2.10;;
61911;SDS011;49973;52.084;5.412;2023-06-04T05:39:07;2.53;;;1.63;;
61911;SDS011;49973;52.084;5.412;2023-06-04T05:41:48;3.50;;;1.73;;
61911;SDS011;49973;52.084;5.412;2023-06-04T05:44:18;5.37;;;2.03;;
61911;SDS011;49973;52.084;5.412;2023-06-04T05:46:47;2.63;;;1.70;;
61911;SDS011;49973;52.084;5.412;2023-06-04T05:49:16;6.23;;;2.17;;
61911;SDS011;49973;52.084;5.412;2023-06-04T05:51:46;2.93;;;2.23;;
61911;SDS011;49973;52.084;5.412;2023-06-04T05:54:19;5.47;;;2.00;;
61911;SDS011;49973;52.084;5.412;2023-06-04T05:56:48;5.63;;;2.40;;
61911;SDS011;49973;52.084;5.412;2023-06-04T05:59:17;2.60;;;1.87;;
61911;SDS011;49973;52.084;5.412;2023-06-04T06:01:46;4.53;;;2.40;;
61911;SDS011;49973;52.084;5.412;2023-06-04T06:04:15;5.43;;;2.13;;
61911;SDS011;49973;52.084;5.412;2023-06-04T06:06:44;3.80;;;1.70;;
61911;SDS011;49973;52.084;5.412;2023-06-04T06:09:15;5.53;;;2.20;;
61911;SDS011;49973;52.084;5.412;2023-06-04T06:11:46;5.63;;;1.93;;
61911;SDS011;49973;52.084;5.412;2023-06-04T06:14:15;3.80;;;1.80;;
61911;SDS011;49973;52.084;5.412;2023-06-04T06:16:43;6.57;;;2.10;;
61911;SDS011;49973;52.084;5.412;2023-06-04T06:19:13;4.73;;;2.07;;
61911;SDS011;49973;52.084;5.412;2023-06-04T06:21:43;3.60;;;1.60;;
61911;SDS011;49973;52.084;5.412;2023-06-04T06:24:13;3.43;;;1.87;;
61911;SDS011;49973;52.084;5.412;2023-06-04T06:26:42;5.27;;;1.67;;
61911;SDS011;49973;52.084;5.412;2023-06-04T06:29:14;11.80;;;2.10;;
61911;SDS011;49973;52.084;5.412;2023-06-04T06:31:42;6.33;;;2.00;;
61911;SDS011;49973;52.084;5.412;2023-06-04T06:34:11;2.07;;;1.30;;
61911;SDS011;49973;52.084;5.412;2023-06-04T06:36:40;3.80;;;1.80;;
61911;SDS011;49973;52.084;5.412;2023-06-04T06:39:09;6.97;;;1.93;;
61911;SDS011;49973;52.084;5.412;2023-06-04T06:41:39;4.23;;;2.13;;
61911;SDS011;49973;52.084;5.412;2023-06-04T06:44:11;5.63;;;1.87;;
61911;SDS011;49973;52.084;5.412;2023-06-04T06:46:42;6.50;;;1.70;;
61911;SDS011;49973;52.084;5.412;2023-06-04T06:49:10;4.57;;;1.80;;
61911;SDS011;49973;52.084;5.412;2023-06-04T06:51:39;6.50;;;1.60;;
61911;SDS011;49973;52.084;5.412;2023-06-04T06:54:08;2.53;;;1.43;;
61911;SDS011;49973;52.084;5.412;2023-06-04T06:56:37;4.50;;;1.40;;
61911;SDS011;49973;52.084;5.412;2023-06-04T06:59:05;5.20;;;2.37;;
61911;SDS011;49973;52.084;5.412;2023-06-04T07:01:35;7.83;;;1.77;;
61911;SDS011;49973;52.084;5.412;2023-06-04T07:04:04;8.43;;;1.70;;
61911;SDS011;49973;52.084;5.412;2023-06-04T07:06:33;4.47;;;1.63;;
61911;SDS011;49973;52.084;5.412;2023-06-04T07:09:03;3.20;;;1.50;;
61911;SDS011;49973;52.084;5.412;2023-06-04T07:11:32;6.07;;;1.90;;
61911;SDS011;49973;52.084;5.412;2023-06-04T07:14:01;7.60;;;2.13;;
61911;SDS011;49973;52.084;5.412;2023-06-04T07:16:30;3.73;;;1.70;;
61911;SDS011;49973;52.084;5.412;2023-06-04T07:19:00;6.23;;;1.77;;
61911;SDS011;49973;52.084;5.412;2023-06-04T07:21:29;2.27;;;1.20;;
61911;SDS011;49973;52.084;5.412;2023-06-04T07:23:57;5.93;;;1.70;;
61911;SDS011;49973;52.084;5.412;2023-06-04T07:26:26;2.80;;;1.40;;
61911;SDS011;49973;52.084;5.412;2023-06-04T07:29:00;3.43;;;1.57;;
61911;SDS011;49973;52.084;5.412;2023-06-04T07:31:29;2.93;;;1.47;;
61911;SDS011;49973;52.084;5.412;2023-06-04T07:33:59;3.43;;;1.60;;
61911;SDS011;49973;52.084;5.412;2023-06-04T07:36:28;4.93;;;1.47;;
61911;SDS011;49973;52.084;5.412;2023-06-04T07:38:58;3.97;;;1.07;;
61911;SDS011;49973;52.084;5.412;2023-06-04T07:41:26;3.10;;;1.60;;
61911;SDS011;49973;52.084;5.412;2023-06-04T07:43:55;1.90;;;1.20;;
61911;SDS011;49973;52.084;5.412;2023-06-04T07:46:24;2.50;;;1.40;;
61911;SDS011;49973;52.084;5.412;2023-06-04T07:48:52;2.90;;;1.57;;
61911;SDS011;49973;52.084;5.412;2023-06-04T07:51:22;2.07;;;1.27;;
61911;SDS011;49973;52.084;5.412;2023-06-04T07:53:52;2.93;;;1.43;;
61911;SDS011;49973;52.084;5.412;2023-06-04T07:56:21;1.57;;;0.93;;
61911;SDS011;49973;52.084;5.412;2023-06-04T07:58:49;2.50;;;1.17;;
61911;SDS011;49973;52.084;5.412;2023-06-04T08:01:18;3.80;;;1.40;;
61911;SDS011;49973;52.084;5.412;2023-06-04T08:03:48;1.90;;;1.13;;
61911;SDS011;49973;52.084;5.412;2023-06-04T08:06:17;6.37;;;1.53;;
61911;SDS011;49973;52.084;5.412;2023-06-04T08:08:47;2.70;;;1.30;;
61911;SDS011;49973;52.084;5.412;2023-06-04T08:11:17;4.97;;;1.17;;
61911;SDS011;49973;52.084;5.412;2023-06-04T08:13:45;3.50;;;1.63;;
61911;SDS011;49973;52.084;5.412;2023-06-04T08:16:14;6.47;;;1.60;;
61911;SDS011;49973;52.084;5.412;2023-06-04T08:18:43;2.43;;;1.30;;
61911;SDS011;49973;52.084;5.412;2023-06-04T08:21:12;1.83;;;1.20;;
61911;SDS011;49973;52.084;5.412;2023-06-04T08:23:43;2.63;;;1.00;;
61911;SDS011;49973;52.084;5.412;2023-06-04T08:26:13;3.63;;;1.20;;
61911;SDS011;49973;52.084;5.412;2023-06-04T08:28:42;2.30;;;1.40;;
61911;SDS011;49973;52.084;5.412;2023-06-04T08:31:11;4.73;;;1.23;;
61911;SDS011;49973;52.084;5.412;2023-06-04T08:33:40;2.20;;;1.00;;
61911;SDS011;49973;52.084;5.412;2023-06-04T08:36:09;5.30;;;1.30;;
61911;SDS011;49973;52.084;5.412;2023-06-04T08:38:38;2.10;;;1.00;;
61911;SDS011;49973;52.084;5.412;2023-06-04T08:41:09;3.53;;;1.47;;
61911;SDS011;49973;52.084;5.412;2023-06-04T08:43:44;2.10;;;1.07;;
61911;SDS011;49973;52.084;5.412;2023-06-04T08:46:15;3.23;;;1.07;;
61911;SDS011;49973;52.084;5.412;2023-06-04T08:48:47;5.17;;;1.40;;
61911;SDS011;49973;52.084;5.412;2023-06-04T08:51:17;4.23;;;1.20;;
61911;SDS011;49973;52.084;5.412;2023-06-04T08:53:46;2.33;;;1.00;;
61911;SDS011;49973;52.084;5.412;2023-06-04T08:56:20;2.33;;;0.90;;
61911;SDS011;49973;52.084;5.412;2023-06-04T08:58:51;3.43;;;1.07;;
61911;SDS011;49973;52.084;5.412;2023-06-04T09:01:21;3.10;;;1.00;;
61911;SDS011;49973;52.084;5.412;2023-06-04T09:03:50;6.10;;;1.10;;
61911;SDS011;49973;52.084;5.412;2023-06-04T09:06:18;3.13;;;0.97;;
61911;SDS011;49973;52.084;5.412;2023-06-04T09:08:47;1.90;;;1.00;;
61911;SDS011;49973;52.084;5.412;2023-06-04T09:11:24;1.17;;;0.97;;
61911;SDS011;49973;52.084;5.412;2023-06-04T09:13:58;1.27;;;1.03;;
61911;SDS011;49973;52.084;5.412;2023-06-04T09:16:29;2.80;;;0.90;;
61911;SDS011;49973;52.084;5.412;2023-06-04T09:19:03;1.60;;;1.07;;
61911;SDS011;49973;52.084;5.412;2023-06-04T09:21:32;1.00;;;0.77;;
61911;SDS011;49973;52.084;5.412;2023-06-04T09:24:00;1.10;;;0.80;;
61911;SDS011;49973;52.084;5.412;2023-06-04T09:26:30;5.50;;;0.97;;
61911;SDS011;49973;52.084;5.412;2023-06-04T09:29:00;3.53;;;1.10;;
61911;SDS011;49973;52.084;5.412;2023-06-04T09:31:28;4.27;;;0.97;;
61911;SDS011;49973;52.084;5.412;2023-06-04T09:34:03;2.07;;;0.70;;
61911;SDS011;49973;52.084;5.412;2023-06-04T09:36:32;3.07;;;1.23;;
61911;SDS011;49973;52.084;5.412;2023-06-04T09:39:02;2.77;;;0.80;;
61911;SDS011;49973;52.084;5.412;2023-06-04T09:41:32;4.40;;;0.97;;
61911;SDS011;49973;52.084;5.412;2023-06-04T09:44:02;1.60;;;0.73;;
61911;SDS011;49973;52.084;5.412;2023-06-04T09:46:32;2.10;;;0.83;;
61911;SDS011;49973;52.084;5.412;2023-06-04T09:49:02;0.50;;;0.50;;
61911;SDS011;49973;52.084;5.412;2023-06-04T09:51:32;2.58;;;0.70;;
61911;SDS011;49973;52.084;5.412;2023-06-04T09:54:02;2.10;;;0.90;;
61911;SDS011;49973;52.084;5.412;2023-06-04T09:56:38;1.67;;;0.97;;
61911;SDS011;49973;52.084;5.412;2023-06-04T09:59:09;2.13;;;0.83;;
61911;SDS011;49973;52.084;5.412;2023-06-04T10:01:38;3.22;;;1.33;;
61911;SDS011;49973;52.084;5.412;2023-06-04T10:04:09;1.17;;;0.90;;
61911;SDS011;49973;52.084;5.412;2023-06-04T10:06:39;1.73;;;1.00;;
61911;SDS011;49973;52.084;5.412;2023-06-04T10:09:08;4.53;;;1.00;;
61911;SDS011;49973;52.084;5.412;2023-06-04T10:11:39;1.83;;;0.80;;
61911;SDS011;49973;52.084;5.412;2023-06-04T10:14:14;2.65;;;1.20;;
61911;SDS011;49973;52.084;5.412;2023-06-04T10:16:49;3.63;;;1.23;;
61911;SDS011;49973;52.084;5.412;2023-06-04T10:19:19;2.50;;;1.05;;
61911;SDS011;49973;52.084;5.412;2023-06-04T10:21:48;1.45;;;0.60;;
61911;SDS011;49973;52.084;5.412;2023-06-04T10:24:17;3.25;;;0.88;;
61911;SDS011;49973;52.084;5.412;2023-06-04T10:26:47;1.10;;;0.93;;
61911;SDS011;49973;52.084;5.412;2023-06-04T10:29:19;3.15;;;1.08;;
61911;SDS011;49973;52.084;5.412;2023-06-04T10:31:53;5.03;;;0.90;;
61911;SDS011;49973;52.084;5.412;2023-06-04T10:34:22;2.28;;;1.08;;
61911;SDS011;49973;52.084;5.412;2023-06-04T10:36:51;2.22;;;1.30;;
61911;SDS011;49973;52.084;5.412;2023-06-04T10:39:27;1.85;;;0.68;;
61911;SDS011;49973;52.084;5.412;2023-06-04T10:41:59;4.40;;;1.10;;
61911;SDS011;49973;52.084;5.412;2023-06-04T10:44:30;3.05;;;0.90;;
61911;SDS011;49973;52.084;5.412;2023-06-04T10:47:00;1.30;;;0.80;;
61911;SDS011;49973;52.084;5.412;2023-06-04T10:49:29;1.65;;;0.82;;
61911;SDS011;49973;52.084;5.412;2023-06-04T10:52:09;2.35;;;0.80;;
61911;SDS011;49973;52.084;5.412;2023-06-04T10:54:38;1.05;;;0.65;;
61911;SDS011;49973;52.084;5.412;2023-06-04T10:57:10;2.08;;;1.40;;
61911;SDS011;49973;52.084;5.412;2023-06-04T10:59:40;6.03;;;0.85;;
61911;SDS011;49973;52.084;5.412;2023-06-04T11:02:09;6.18;;;1.17;;
61911;SDS011;49973;52.084;5.412;2023-06-04T11:04:38;2.20;;;1.10;;
61911;SDS011;49973;52.084;5.412;2023-06-04T11:07:07;2.25;;;0.70;;
61911;SDS011;49973;52.084;5.412;2023-06-04T11:09:37;3.42;;;1.15;;
61911;SDS011;49973;52.084;5.412;2023-06-04T11:12:06;2.00;;;1.10;;
61911;SDS011;49973;52.084;5.412;2023-06-04T11:14:35;1.40;;;0.90;;
61911;SDS011;49973;52.084;5.412;2023-06-04T11:17:11;4.32;;;1.30;;
61911;SDS011;49973;52.084;5.412;2023-06-04T11:19:40;2.60;;;1.40;;
61911;SDS011;49973;52.084;5.412;2023-06-04T11:22:16;2.47;;;1.20;;
61911;SDS011;49973;52.084;5.412;2023-06-04T11:24:44;3.95;;;0.98;;
61911;SDS011;49973;52.084;5.412;2023-06-04T11:27:13;3.13;;;0.95;;
61911;SDS011;49973;52.084;5.412;2023-06-04T11:29:54;3.92;;;1.10;;
61911;SDS011;49973;52.084;5.412;2023-06-04T11:32:22;4.93;;;1.15;;
61911;SDS011;49973;52.084;5.412;2023-06-04T11:35:01;6.22;;;1.13;;
61911;SDS011;49973;52.084;5.412;2023-06-04T11:37:32;6.38;;;1.50;;
61911;SDS011;49973;52.084;5.412;2023-06-04T11:40:02;4.43;;;1.55;;
61911;SDS011;49973;52.084;5.412;2023-06-04T11:42:33;1.63;;;1.00;;
61911;SDS011;49973;52.084;5.412;2023-06-04T11:45:03;1.80;;;1.10;;
61911;SDS011;49973;52.084;5.412;2023-06-04T11:47:33;1.35;;;0.75;;
61911;SDS011;49973;52.084;5.412;2023-06-04T11:50:04;4.32;;;1.50;;
61911;SDS011;49973;52.084;5.412;2023-06-04T11:52:37;3.13;;;0.95;;
61911;SDS011;49973;52.084;5.412;2023-06-04T11:55:07;1.52;;;0.80;;
61911;SDS011;49973;52.084;5.412;2023-06-04T11:57:37;1.50;;;0.95;;
61911;SDS011;49973;52.084;5.412;2023-06-04T12:00:07;2.75;;;1.10;;
61911;SDS011;49973;52.084;5.412;2023-06-04T12:02:47;2.60;;;1.05;;
61911;SDS011;49973;52.084;5.412;2023-06-04T12:05:18;3.15;;;0.90;;
61911;SDS011;49973;52.084;5.412;2023-06-04T12:07:51;2.70;;;0.80;;
61911;SDS011;49973;52.084;5.412;2023-06-04T12:10:20;2.13;;;0.80;;
61911;SDS011;49973;52.084;5.412;2023-06-04T12:12:53;1.83;;;1.10;;
61911;SDS011;49973;52.084;5.412;2023-06-04T12:15:22;2.85;;;1.08;;
61911;SDS011;49973;52.084;5.412;2023-06-04T12:17:52;1.75;;;0.85;;
61911;SDS011;49973;52.084;5.412;2023-06-04T12:20:34;5.40;;;1.02;;
61911;SDS011;49973;52.084;5.412;2023-06-04T12:23:05;4.32;;;0.90;;
61911;SDS011;49973;52.084;5.412;2023-06-04T12:25:35;3.30;;;0.85;;
61911;SDS011;49973;52.084;5.412;2023-06-04T12:28:06;2.35;;;0.80;;
61911;SDS011;49973;52.084;5.412;2023-06-04T12:30:44;1.73;;;0.93;;
61911;SDS011;49973;52.084;5.412;2023-06-04T12:33:13;5.38;;;0.93;;
61911;SDS011;49973;52.084;5.412;2023-06-04T12:35:42;3.55;;;1.23;;
61911;SDS011;49973;52.084;5.412;2023-06-04T12:38:13;2.20;;;0.70;;
61911;SDS011;49973;52.084;5.412;2023-06-04T12:40:42;2.08;;;0.80;;
61911;SDS011;49973;52.084;5.412;2023-06-04T12:43:11;2.15;;;0.80;;
61911;SDS011;49973;52.084;5.412;2023-06-04T12:45:40;2.45;;;0.88;;
61911;SDS011;49973;52.084;5.412;2023-06-04T12:48:08;3.65;;;0.80;;
61911;SDS011;49973;52.084;5.412;2023-06-04T12:50:37;7.40;;;1.02;;
61911;SDS011;49973;52.084;5.412;2023-06-04T12:53:06;1.58;;;0.95;;
61911;SDS011;49973;52.084;5.412;2023-06-04T12:55:36;1.92;;;0.65;;
61911;SDS011;49973;52.084;5.412;2023-06-04T12:58:05;1.10;;;0.90;;
61911;SDS011;49973;52.084;5.412;2023-06-04T13:00:34;4.18;;;0.85;;
61911;SDS011;49973;52.084;5.412;2023-06-04T13:03:02;3.30;;;1.17;;
61911;SDS011;49973;52.084;5.412;2023-06-04T13:05:31;3.08;;;0.85;;
61911;SDS011;49973;52.084;5.412;2023-06-04T13:08:00;5.00;;;1.02;;
61911;SDS011;49973;52.084;5.412;2023-06-04T13:10:29;4.00;;;1.40;;
61911;SDS011;49973;52.084;5.412;2023-06-04T13:12:59;1.13;;;0.80;;
61911;SDS011;49973;52.084;5.412;2023-06-04T13:15:27;3.35;;;0.88;;
61911;SDS011;49973;52.084;5.412;2023-06-04T13:17:56;3.80;;;1.08;;
61911;SDS011;49973;52.084;5.412;2023-06-04T13:20:26;5.53;;;0.98;;
61911;SDS011;49973;52.084;5.412;2023-06-04T13:22:54;1.92;;;0.73;;
61911;SDS011;49973;52.084;5.412;2023-06-04T13:25:23;3.08;;;0.95;;
61911;SDS011;49973;52.084;5.412;2023-06-04T13:27:52;1.23;;;1.00;;
61911;SDS011;49973;52.084;5.412;2023-06-04T13:30:22;1.23;;;1.10;;
61911;SDS011;49973;52.084;5.412;2023-06-04T13:32:52;3.90;;;1.20;;
61911;SDS011;49973;52.084;5.412;2023-06-04T13:35:21;2.63;;;0.80;;
61911;SDS011;49973;52.084;5.412;2023-06-04T13:37:49;1.88;;;1.25;;
61911;SDS011;49973;52.084;5.412;2023-06-04T13:40:18;1.45;;;1.00;;
61911;SDS011;49973;52.084;5.412;2023-06-04T13:42:47;2.80;;;1.00;;
61911;SDS011;49973;52.084;5.412;2023-06-04T13:45:15;5.85;;;1.52;;
61911;SDS011;49973;52.084;5.412;2023-06-04T13:47:48;2.78;;;1.13;;
61911;SDS011;49973;52.084;5.412;2023-06-04T13:50:21;4.43;;;1.00;;
61911;SDS011;49973;52.084;5.412;2023-06-04T13:52:49;2.22;;;0.93;;
61911;SDS011;49973;52.084;5.412;2023-06-04T13:55:19;6.90;;;1.52;;
61911;SDS011;49973;52.084;5.412;2023-06-04T13:57:47;2.92;;;1.48;;
61911;SDS011;49973;52.084;5.412;2023-06-04T14:00:16;1.85;;;1.00;;
61911;SDS011;49973;52.084;5.412;2023-06-04T14:02:45;1.45;;;0.90;;
61911;SDS011;49973;52.084;5.412;2023-06-04T14:05:15;3.88;;;1.17;;
61911;SDS011;49973;52.084;5.412;2023-06-04T14:07:44;3.72;;;1.20;;
61911;SDS011;49973;52.084;5.412;2023-06-04T14:10:13;6.75;;;1.17;;
61911;SDS011;49973;52.084;5.412;2023-06-04T14:12:42;4.25;;;1.38;;
61911;SDS011;49973;52.084;5.412;2023-06-04T14:15:10;2.58;;;0.80;;
61911;SDS011;49973;52.084;5.412;2023-06-04T14:17:39;3.28;;;0.98;;
61911;SDS011;49973;52.084;5.412;2023-06-04T14:20:10;2.70;;;1.47;;
61911;SDS011;49973;52.084;5.412;2023-06-04T14:22:38;3.10;;;1.07;;
61911;SDS011;49973;52.084;5.412;2023-06-04T14:25:07;4.47;;;1.03;;
61911;SDS011;49973;52.084;5.412;2023-06-04T14:27:37;2.20;;;1.00;;
61911;SDS011;49973;52.084;5.412;2023-06-04T14:30:06;2.37;;;1.30;;
61911;SDS011;49973;52.084;5.412;2023-06-04T14:32:35;4.40;;;1.30;;
61911;SDS011;49973;52.084;5.412;2023-06-04T14:35:05;2.37;;;0.80;;
61911;SDS011;49973;52.084;5.412;2023-06-04T14:37:36;3.23;;;1.10;;
61911;SDS011;49973;52.084;5.412;2023-06-04T14:40:05;1.80;;;1.00;;
61911;SDS011;49973;52.084;5.412;2023-06-04T14:42:34;2.67;;;1.13;;
61911;SDS011;49973;52.084;5.412;2023-06-04T14:45:03;1.80;;;1.20;;
61911;SDS011;49973;52.084;5.412;2023-06-04T14:47:33;3.50;;;1.10;;
61911;SDS011;49973;52.084;5.412;2023-06-04T14:50:01;3.27;;;1.20;;
61911;SDS011;49973;52.084;5.412;2023-06-04T14:52:30;5.03;;;1.40;;
61911;SDS011;49973;52.084;5.412;2023-06-04T14:55:00;1.17;;;1.00;;
61911;SDS011;49973;52.084;5.412;2023-06-04T14:57:28;2.83;;;1.03;;
61911;SDS011;49973;52.084;5.412;2023-06-04T14:59:57;5.23;;;1.33;;
61911;SDS011;49973;52.084;5.412;2023-06-04T15:02:27;2.57;;;1.40;;
61911;SDS011;49973;52.084;5.412;2023-06-04T15:04:56;1.73;;;1.20;;